Time;durP1;ratioP1;P1;durP2;ratioP2;P2;SDS_P1;SDS_P2;PMS_P1;PMS_P2;Temp;Humidity;BMP_temperature;BMP_pressure;BME280_temperature;BME280_humidity;BME280_pressure;Samples;Min_cycle;Max_cycle;Signal;HPM_P1;HPM_P2
2021/03/06 00:00:08;;;;;;;12.60;5.15;;;-1.30;99.90;;;;;;5016759;28;20155;-71
2021/03/06 00:02:53;;;;;;;9.85;4.90;;;-1.40;99.90;;;;;;5023680;28;20122;-71
2021/03/06 00:05:37;;;;;;;9.82;4.88;;;-1.40;99.90;;;;;;5023317;28;20037;-70
2021/03/06 00:08:24;;;;;;;10.05;4.97;;;-1.40;99.90;;;;;;5024629;28;20398;-70
2021/03/06 00:11:08;;;;;;;11.82;4.88;;;-1.40;99.90;;;;;;5017164;28;20132;-70
2021/03/06 00:13:53;;;;;;;10.95;4.15;;;-1.50;99.90;;;;;;5017920;28;20069;-70
2021/03/06 00:16:37;;;;;;;11.15;4.70;;;-1.50;99.90;;;;;;5017409;28;20049;-70
2021/03/06 00:19:21;;;;;;;8.98;4.22;;;-1.50;99.90;;;;;;5021608;28;20052;-70
2021/03/06 00:22:06;;;;;;;9.48;4.00;;;-1.60;99.90;;;;;;5018480;28;20064;-71
2021/03/06 00:24:50;;;;;;;9.68;4.18;;;-1.60;99.90;;;;;;5023850;28;20040;-71
2021/03/06 00:27:34;;;;;;;10.38;5.00;;;-1.60;99.90;;;;;;5018012;28;20156;-70
2021/03/06 00:30:19;;;;;;;13.88;4.50;;;-1.70;99.90;;;;;;5019976;28;20517;-70
2021/03/06 00:33:04;;;;;;;8.63;4.22;;;-1.70;99.90;;;;;;5025705;28;20044;-70
2021/03/06 00:35:49;;;;;;;9.75;4.43;;;-1.70;99.90;;;;;;5034973;28;20045;-71
2021/03/06 00:38:33;;;;;;;7.70;3.80;;;-1.70;99.90;;;;;;5015728;28;20104;-70
2021/03/06 00:41:17;;;;;;;12.05;4.70;;;-1.80;99.90;;;;;;5020750;28;20402;-70
2021/03/06 00:44:02;;;;;;;10.23;4.72;;;-1.80;99.90;;;;;;5027710;28;20099;-70
2021/03/06 00:46:46;;;;;;;9.25;4.70;;;-1.80;99.90;;;;;;5026841;28;20049;-70
2021/03/06 00:49:30;;;;;;;10.95;4.38;;;-1.80;99.90;;;;;;5024524;28;20106;-70
2021/03/06 00:52:14;;;;;;;10.05;4.65;;;-1.90;99.90;;;;;;5012219;28;20052;-70
2021/03/06 00:54:58;;;;;;;9.20;4.22;;;-1.80;99.90;;;;;;5025958;28;20063;-70
2021/03/06 00:57:43;;;;;;;9.18;3.90;;;-1.90;99.90;;;;;;5021849;28;20068;-71
2021/03/06 01:00:27;;;;;;;7.45;3.90;;;-1.90;99.90;;;;;;5022737;28;20053;-70
2021/03/06 01:03:11;;;;;;;10.45;3.50;;;-1.90;99.90;;;;;;5018886;28;20127;-71
2021/03/06 01:05:55;;;;;;;8.75;4.25;;;-1.90;99.90;;;;;;5027878;28;20045;-70
2021/03/06 01:08:39;;;;;;;9.00;3.85;;;-1.90;99.90;;;;;;5027926;28;20091;-70
2021/03/06 01:11:23;;;;;;;9.30;4.00;;;-1.90;99.90;;;;;;5026043;28;20119;-71
2021/03/06 01:14:07;;;;;;;8.27;4.20;;;-1.90;99.90;;;;;;5016026;28;20427;-71
2021/03/06 01:16:51;;;;;;;10.50;4.05;;;-1.90;99.90;;;;;;5013555;28;20164;-71
2021/03/06 01:19:35;;;;;;;9.63;3.83;;;-2.00;99.90;;;;;;5013325;28;20040;-70
2021/03/06 01:22:19;;;;;;;8.82;3.80;;;-1.90;99.90;;;;;;5012364;28;20185;-70
2021/03/06 01:25:05;;;;;;;8.90;4.38;;;-1.90;99.90;;;;;;5017367;28;20048;-70
2021/03/06 01:27:50;;;;;;;7.68;3.50;;;-2.00;99.90;;;;;;5020415;28;20040;-70
2021/03/06 01:30:35;;;;;;;9.93;4.40;;;-2.00;99.90;;;;;;5022664;28;20044;-70
2021/03/06 01:33:19;;;;;;;9.32;4.35;;;-2.10;99.90;;;;;;5021738;28;20047;-70
2021/03/06 01:36:03;;;;;;;9.88;4.22;;;-2.10;99.90;;;;;;5021882;28;20068;-71
2021/03/06 01:38:47;;;;;;;8.05;4.32;;;-2.10;99.90;;;;;;5012943;28;20041;-70
2021/03/06 01:41:31;;;;;;;8.13;3.80;;;-2.10;99.90;;;;;;5018066;28;20083;-71
2021/03/06 01:44:16;;;;;;;7.15;3.67;;;-2.10;99.90;;;;;;5021632;28;20096;-70
2021/03/06 01:47:01;;;;;;;8.15;3.67;;;-2.10;99.90;;;;;;5020807;28;20064;-70
2021/03/06 01:49:45;;;;;;;8.48;4.10;;;-2.20;99.90;;;;;;5020284;28;20045;-70
2021/03/06 01:52:30;;;;;;;9.18;4.00;;;-2.20;99.90;;;;;;5025110;28;20068;-70
2021/03/06 01:55:15;;;;;;;6.82;3.80;;;-2.20;99.90;;;;;;5013822;28;20517;-70
2021/03/06 01:58:01;;;;;;;6.95;3.47;;;-2.10;99.90;;;;;;5018095;28;20121;-71
2021/03/06 02:00:45;;;;;;;9.25;3.70;;;-2.10;99.90;;;;;;5020895;28;20491;-70
2021/03/06 02:03:29;;;;;;;8.27;4.50;;;-2.20;99.90;;;;;;5022907;28;20713;-71
2021/03/06 02:06:13;;;;;;;8.45;3.80;;;-2.20;99.90;;;;;;5018934;28;20132;-71
2021/03/06 02:08:57;;;;;;;8.80;3.63;;;-2.20;99.90;;;;;;5013822;28;20048;-70
2021/03/06 02:11:47;;;;;;;6.63;3.20;;;-2.20;99.90;;;;;;5014380;28;20049;-70
2021/03/06 02:14:37;;;;;;;9.60;4.03;;;-2.20;99.90;;;;;;5016032;28;20087;-71
2021/03/06 02:17:37;;;;;;;7.38;3.42;;;-2.20;99.90;;;;;;5023612;28;20044;-70
2021/03/06 02:20:59;;;;;;;8.80;4.22;;;-2.30;99.90;;;;;;5022530;28;20043;-70
2021/03/06 02:24:02;;;;;;;9.02;5.47;;;-2.30;99.90;;;;;;5022515;28;20155;-71
2021/03/06 02:27:13;;;;;;;9.05;3.55;;;-2.40;99.90;;;;;;5019328;28;20125;-70
2021/03/06 02:30:18;;;;;;;7.60;4.13;;;-2.40;99.90;;;;;;5015389;28;20041;-70
2021/03/06 02:33:05;;;;;;;8.00;3.88;;;-2.30;99.90;;;;;;5016066;28;20100;-70
2021/03/06 02:35:51;;;;;;;7.53;3.28;;;-2.30;99.90;;;;;;5021237;28;20072;-70
2021/03/06 02:38:38;;;;;;;7.15;3.53;;;-2.30;99.90;;;;;;5014573;28;20095;-70
2021/03/06 02:41:25;;;;;;;9.05;3.80;;;-2.40;99.90;;;;;;5017771;28;20057;-70
2021/03/06 02:44:12;;;;;;;9.30;4.25;;;-2.50;99.90;;;;;;5013494;28;20675;-70
2021/03/06 02:46:59;;;;;;;9.13;3.97;;;-2.40;99.90;;;;;;5020364;28;20155;-71
2021/03/06 02:49:59;;;;;;;8.38;3.65;;;-2.50;99.90;;;;;;5016063;28;20083;-71
2021/03/06 02:52:44;;;;;;;7.57;4.03;;;-2.50;99.90;;;;;;5010988;28;20526;-71
2021/03/06 02:55:28;;;;;;;9.15;4.03;;;-2.50;99.90;;;;;;5013511;28;20091;-70
2021/03/06 02:58:24;;;;;;;10.10;4.07;;;-2.50;99.90;;;;;;5014029;28;20049;-70
2021/03/06 03:01:38;;;;;;;9.25;3.83;;;-2.50;99.90;;;;;;5017287;28;20049;-70
2021/03/06 03:05:04;;;;;;;9.45;3.97;;;-2.50;99.90;;;;;;5014478;28;20092;-70
2021/03/06 03:08:06;;;;;;;10.15;4.25;;;-2.40;99.90;;;;;;5030019;28;20056;-71
2021/03/06 03:10:55;;;;;;;8.60;4.45;;;-2.50;99.90;;;;;;5019366;28;20044;-71
2021/03/06 03:13:51;;;;;;;10.63;3.85;;;-2.50;99.90;;;;;;5020859;28;20064;-70
2021/03/06 03:16:46;;;;;;;9.60;4.40;;;-2.50;99.90;;;;;;5018605;28;20095;-70
2021/03/06 03:19:36;;;;;;;8.93;4.13;;;-2.60;99.90;;;;;;5020270;28;20049;-70
2021/03/06 03:22:22;;;;;;;9.00;4.57;;;-2.60;99.90;;;;;;5013460;28;20060;-70
2021/03/06 03:25:08;;;;;;;9.82;4.53;;;-2.60;99.90;;;;;;5021580;28;20044;-70
2021/03/06 03:27:53;;;;;;;8.60;4.95;;;-2.60;99.90;;;;;;5021783;28;20053;-70
2021/03/06 03:30:39;;;;;;;8.13;4.50;;;-2.60;99.90;;;;;;5019231;28;20570;-70
2021/03/06 03:33:24;;;;;;;12.90;4.72;;;-2.70;99.90;;;;;;5023944;28;20080;-70
2021/03/06 03:36:09;;;;;;;12.63;4.60;;;-2.80;99.90;;;;;;5024163;28;20046;-71
2021/03/06 03:38:55;;;;;;;10.48;4.68;;;-2.80;99.90;;;;;;5021032;28;20100;-69
2021/03/06 03:41:39;;;;;;;10.68;4.80;;;-2.80;99.90;;;;;;5025358;28;20076;-69
2021/03/06 03:44:24;;;;;;;11.63;5.40;;;-2.80;99.90;;;;;;5019796;28;20092;-69
2021/03/06 03:47:08;;;;;;;10.77;5.40;;;-2.90;99.90;;;;;;5022764;28;20537;-70
2021/03/06 03:49:52;;;;;;;9.27;4.25;;;-2.90;99.90;;;;;;5018613;28;20068;-70
2021/03/06 03:52:39;;;;;;;11.88;5.00;;;-2.90;99.90;;;;;;5023128;28;20044;-70
2021/03/06 03:55:24;;;;;;;10.25;4.75;;;-2.90;99.90;;;;;;5016304;28;20045;-71
2021/03/06 03:58:12;;;;;;;10.32;3.92;;;-2.90;99.90;;;;;;5026206;28;20121;-70
2021/03/06 04:01:01;;;;;;;10.70;4.70;;;-2.90;99.90;;;;;;5019033;28;20044;-70
2021/03/06 04:03:45;;;;;;;11.75;4.90;;;-2.90;99.90;;;;;;5024847;28;20140;-70
2021/03/06 04:06:29;;;;;;;9.95;4.65;;;-3.10;99.90;;;;;;5021783;28;20036;-70
2021/03/06 04:09:13;;;;;;;8.50;4.65;;;-3.10;99.90;;;;;;5012272;28;20081;-70
2021/03/06 04:11:57;;;;;;;11.50;5.20;;;-3.00;99.90;;;;;;5015023;28;20044;-69
2021/03/06 04:14:42;;;;;;;8.38;4.32;;;-3.00;99.90;;;;;;5017482;28;20129;-70
2021/03/06 04:17:26;;;;;;;9.80;4.63;;;-3.00;99.90;;;;;;5022635;28;20121;-70
2021/03/06 04:20:13;;;;;;;9.40;5.03;;;-3.00;99.90;;;;;;5020586;28;20049;-70
2021/03/06 04:22:59;;;;;;;10.40;4.47;;;-3.00;99.90;;;;;;5013534;28;20084;-70
2021/03/06 04:25:44;;;;;;;8.30;4.07;;;-3.00;99.90;;;;;;5021770;28;20041;-70
2021/03/06 04:28:28;;;;;;;9.50;4.47;;;-3.00;99.90;;;;;;5024021;28;20478;-69
2021/03/06 04:31:12;;;;;;;8.55;4.82;;;-2.90;99.90;;;;;;5018051;28;20076;-70
2021/03/06 04:33:56;;;;;;;11.98;4.75;;;-2.90;99.90;;;;;;5014380;28;20048;-69
2021/03/06 04:36:40;;;;;;;9.45;4.18;;;-2.90;99.90;;;;;;5015728;28;20045;-70
2021/03/06 04:39:25;;;;;;;9.88;4.50;;;-2.80;99.90;;;;;;5025020;28;20395;-70
2021/03/06 04:42:09;;;;;;;8.48;3.88;;;-2.90;99.90;;;;;;5023748;28;20045;-71
2021/03/06 04:44:53;;;;;;;10.05;3.88;;;-2.90;99.90;;;;;;5024429;28;20099;-71
2021/03/06 04:47:42;;;;;;;8.75;4.03;;;-2.90;99.90;;;;;;5015351;28;20096;-71
2021/03/06 04:50:27;;;;;;;7.57;3.97;;;-2.90;99.90;;;;;;5020619;28;20471;-71
2021/03/06 04:53:11;;;;;;;7.65;4.13;;;-3.00;99.90;;;;;;5028086;28;20044;-71
2021/03/06 04:55:55;;;;;;;9.90;4.35;;;-2.90;99.90;;;;;;5025507;28;20142;-71
2021/03/06 04:58:39;;;;;;;8.77;4.57;;;-3.00;99.90;;;;;;5017099;28;20099;-71
2021/03/06 05:01:23;;;;;;;9.75;4.63;;;-2.90;99.90;;;;;;5019945;28;20104;-71
2021/03/06 05:04:07;;;;;;;9.50;3.90;;;-2.90;99.90;;;;;;5015739;28;20537;-71
2021/03/06 05:06:51;;;;;;;8.32;4.25;;;-2.90;99.90;;;;;;5018642;28;20103;-71
2021/03/06 05:09:35;;;;;;;10.70;4.90;;;-2.90;99.90;;;;;;5015205;28;20869;-71
2021/03/06 05:12:19;;;;;;;8.98;4.60;;;-2.90;99.90;;;;;;5015531;28;20134;-71
2021/03/06 05:15:05;;;;;;;8.85;4.97;;;-3.00;99.90;;;;;;5017365;28;20122;-71
2021/03/06 05:17:50;;;;;;;9.85;4.55;;;-3.00;99.90;;;;;;5023381;28;20045;-72
2021/03/06 05:20:34;;;;;;;7.50;4.20;;;-3.00;99.90;;;;;;5020556;28;20045;-71
2021/03/06 05:23:18;;;;;;;11.32;4.60;;;-3.00;99.90;;;;;;5019503;28;20520;-72
2021/03/06 05:26:02;;;;;;;8.15;4.70;;;-3.00;99.90;;;;;;5023728;28;20063;-71
2021/03/06 05:28:47;;;;;;;8.05;4.70;;;-3.00;99.90;;;;;;5013029;28;20076;-71
2021/03/06 05:31:31;;;;;;;7.88;4.07;;;-3.00;99.90;;;;;;5024158;28;20048;-72
2021/03/06 05:34:15;;;;;;;8.63;4.38;;;-3.00;99.90;;;;;;5021430;28;20103;-72
2021/03/06 05:36:59;;;;;;;12.25;5.10;;;-3.10;99.90;;;;;;5010673;28;20080;-71
2021/03/06 05:39:43;;;;;;;10.48;4.05;;;-3.00;99.90;;;;;;5019460;28;20045;-72
2021/03/06 05:42:28;;;;;;;9.00;4.80;;;-3.00;99.90;;;;;;5022974;28;20091;-71
2021/03/06 05:45:13;;;;;;;8.27;4.05;;;-2.90;99.90;;;;;;5015759;28;20060;-71
2021/03/06 05:47:58;;;;;;;11.07;4.72;;;-3.00;99.90;;;;;;5026074;28;20144;-71
2021/03/06 05:50:43;;;;;;;7.95;3.95;;;-2.90;99.90;;;;;;5015861;28;20048;-71
2021/03/06 05:53:31;;;;;;;8.40;4.65;;;-2.90;99.90;;;;;;5024017;28;20080;-71
2021/03/06 05:56:16;;;;;;;6.63;4.00;;;-3.00;99.90;;;;;;5021319;28;20048;-71
2021/03/06 05:59:03;;;;;;;13.32;4.82;;;-2.90;99.90;;;;;;5013575;28;20191;-71
2021/03/06 06:01:48;;;;;;;7.78;4.28;;;-3.00;99.90;;;;;;5015057;28;20084;-71
2021/03/06 06:04:34;;;;;;;9.77;4.90;;;-2.90;99.90;;;;;;5015630;28;20064;-71
2021/03/06 06:07:19;;;;;;;7.28;4.15;;;-2.90;99.90;;;;;;5029506;28;20055;-71
2021/03/06 06:10:04;;;;;;;7.32;3.70;;;-2.90;99.90;;;;;;5022577;28;20151;-71
2021/03/06 06:12:48;;;;;;;9.02;4.38;;;-2.90;99.90;;;;;;5017169;28;20052;-71
2021/03/06 06:15:32;;;;;;;8.55;4.57;;;-2.80;99.90;;;;;;5020913;28;20060;-71
2021/03/06 06:18:17;;;;;;;9.27;4.78;;;-2.70;99.90;;;;;;5014162;28;20075;-70
2021/03/06 06:21:02;;;;;;;9.20;4.07;;;-2.70;99.90;;;;;;5018892;28;20079;-71
2021/03/06 06:24:05;;;;;;;9.30;4.55;;;-2.70;99.90;;;;;;5034694;28;20076;-71
2021/03/06 06:26:54;;;;;;;10.27;4.50;;;-2.70;99.90;;;;;;5020510;28;20084;-71
2021/03/06 06:29:47;;;;;;;9.15;4.60;;;-2.70;99.90;;;;;;5027499;28;20041;-71
2021/03/06 06:32:42;;;;;;;7.32;3.97;;;-2.70;99.90;;;;;;5027337;28;20075;-71
2021/03/06 06:35:27;;;;;;;8.18;4.32;;;-2.60;99.90;;;;;;5028584;28;20048;-71
2021/03/06 06:38:11;;;;;;;9.57;5.05;;;-2.60;99.90;;;;;;5020218;28;20100;-71
2021/03/06 06:40:55;;;;;;;8.63;4.20;;;-2.50;99.90;;;;;;5027879;28;20049;-71
2021/03/06 06:43:40;;;;;;;9.50;4.10;;;-2.50;99.90;;;;;;5018053;28;20092;-71
2021/03/06 06:46:28;;;;;;;7.32;3.75;;;-2.50;99.90;;;;;;5015103;28;20061;-71
2021/03/06 06:49:13;;;;;;;5.45;3.40;;;-2.50;99.90;;;;;;5013813;28;20057;-71
2021/03/06 06:51:59;;;;;;;9.48;4.10;;;-2.40;99.90;;;;;;5037536;28;20110;-71
2021/03/06 06:54:55;;;;;;;7.78;4.00;;;-2.40;99.90;;;;;;5027978;28;20052;-71
2021/03/06 06:57:56;;;;;;;11.57;4.13;;;-2.30;99.90;;;;;;5015319;28;20362;-71
2021/03/06 07:00:41;;;;;;;10.60;3.92;;;-2.30;99.90;;;;;;5012636;28;20045;-71
2021/03/06 07:03:25;;;;;;;7.80;3.60;;;-2.10;99.90;;;;;;5017330;28;20142;-71
2021/03/06 07:06:13;;;;;;;8.10;3.85;;;-2.10;99.90;;;;;;5013255;28;20057;-71
2021/03/06 07:09:14;;;;;;;6.47;3.72;;;-2.00;99.90;;;;;;5015702;28;20048;-71
2021/03/06 07:12:15;;;;;;;7.55;3.50;;;-1.80;99.90;;;;;;5021918;28;20130;-71
2021/03/06 07:15:01;;;;;;;7.22;3.90;;;-1.80;99.90;;;;;;5012409;28;20100;-71
2021/03/06 07:17:47;;;;;;;7.70;3.90;;;-1.70;99.90;;;;;;5018030;28;20391;-71
2021/03/06 07:20:37;;;;;;;6.82;3.55;;;-1.70;99.90;;;;;;5022523;28;20082;-71
2021/03/06 07:23:26;;;;;;;10.00;5.20;;;-1.60;99.90;;;;;;5029470;28;20145;-71
2021/03/06 07:26:10;;;;;;;8.05;3.78;;;-1.50;99.90;;;;;;5025437;28;20099;-71
2021/03/06 07:28:54;;;;;;;8.15;3.75;;;-1.40;99.90;;;;;;5022869;28;20553;-71
2021/03/06 07:31:39;;;;;;;10.90;4.10;;;-1.30;99.90;;;;;;5027471;28;20087;-70
2021/03/06 07:34:30;;;;;;;9.93;3.70;;;-1.20;99.90;;;;;;5012545;28;20057;-70
2021/03/06 07:37:15;;;;;;;8.15;3.70;;;-1.10;99.90;;;;;;5022458;28;20257;-71
2021/03/06 07:40:12;;;;;;;6.90;3.45;;;-1.00;99.90;;;;;;5027021;28;20045;-72
2021/03/06 07:43:01;;;;;;;7.35;4.10;;;-0.80;99.90;;;;;;5023999;28;20176;-71
2021/03/06 07:45:49;;;;;;;7.65;3.20;;;-0.10;99.90;;;;;;5038921;28;20099;-71
2021/03/06 07:48:41;;;;;;;6.15;3.40;;;0.50;99.90;;;;;;5026810;28;20049;-71
2021/03/06 07:51:26;;;;;;;5.88;3.30;;;1.10;99.90;;;;;;5015049;28;20544;-71
2021/03/06 07:54:14;;;;;;;9.00;3.50;;;1.60;99.90;;;;;;5016405;28;20084;-71
2021/03/06 07:56:58;;;;;;;6.63;2.63;;;1.90;99.90;;;;;;5018462;28;20100;-71
2021/03/06 08:00:01;;;;;;;5.65;2.22;;;2.30;99.90;;;;;;5013885;28;20475;-72
2021/03/06 08:02:45;;;;;;;5.47;2.83;;;2.90;99.90;;;;;;5017735;28;20083;-70
2021/03/06 08:05:46;;;;;;;4.95;2.25;;;2.70;99.90;;;;;;5019285;28;20137;-70
2021/03/06 08:08:33;;;;;;;7.63;2.90;;;2.60;99.90;;;;;;5016466;28;20040;-70
2021/03/06 08:11:46;;;;;;;5.05;2.22;;;2.40;99.90;;;;;;5016457;28;20041;-70
2021/03/06 08:14:39;;;;;;;5.57;2.38;;;2.60;99.90;;;;;;5022622;28;20080;-71
2021/03/06 08:17:34;;;;;;;5.50;2.42;;;2.90;99.90;;;;;;5021927;28;20107;-70
2021/03/06 08:20:28;;;;;;;8.52;2.97;;;3.50;99.90;;;;;;5025231;28;20095;-71
2021/03/06 08:23:23;;;;;;;4.35;2.00;;;3.40;99.30;;;;;;5030164;28;20048;-71
2021/03/06 08:26:19;;;;;;;5.28;2.50;;;3.80;98.30;;;;;;5016124;28;20040;-71
2021/03/06 08:29:28;;;;;;;5.88;2.70;;;3.60;98.90;;;;;;5018669;28;20120;-71
2021/03/06 08:32:16;;;;;;;5.13;2.53;;;3.70;99.90;;;;;;5020825;28;20048;-70
2021/03/06 08:35:20;;;;;;;5.00;2.25;;;3.50;98.70;;;;;;5021389;28;20378;-71
2021/03/06 08:38:26;;;;;;;6.10;2.35;;;3.60;99.00;;;;;;5029064;28;20050;-71
2021/03/06 08:41:10;;;;;;;4.07;2.03;;;3.90;99.50;;;;;;5023171;28;20044;-70
2021/03/06 08:44:36;;;;;;;6.13;2.10;;;3.60;98.30;;;;;;5023809;28;20045;-70
2021/03/06 08:47:22;;;;;;;4.63;2.33;;;4.00;98.00;;;;;;5016257;28;20076;-71
2021/03/06 08:50:12;;;;;;;4.45;1.98;;;4.20;97.60;;;;;;5015678;28;20048;-71
2021/03/06 08:53:03;;;;;;;6.53;2.10;;;4.20;96.20;;;;;;5027547;28;20259;-71
2021/03/06 08:55:48;;;;;;;3.83;1.52;;;4.40;96.60;;;;;;5023935;28;20088;-71
2021/03/06 08:58:46;;;;;;;3.85;1.67;;;4.90;96.20;;;;;;5019539;28;20059;-70
2021/03/06 09:01:34;;;;;;;5.35;1.88;;;4.40;93.10;;;;;;5020240;28;20045;-71
2021/03/06 09:04:29;;;;;;;3.85;2.30;;;4.50;94.50;;;;;;5026237;28;20414;-71
2021/03/06 09:07:26;;;;;;;5.75;1.95;;;5.10;95.00;;;;;;5023338;28;20093;-71
2021/03/06 09:10:24;;;;;;;2.70;1.23;;;5.40;91.80;;;;;;5016752;28;20091;-71
2021/03/06 09:13:19;;;;;;;2.85;1.40;;;5.40;90.60;;;;;;5013437;28;20524;-72
2021/03/06 09:16:04;;;;;;;3.85;1.48;;;6.00;90.00;;;;;;5011814;28;20437;-71
2021/03/06 09:18:49;;;;;;;5.35;1.30;;;6.60;79.00;;;;;;5020441;28;20139;-72
2021/03/06 09:21:33;;;;;;;3.40;1.50;;;6.90;72.20;;;;;;5012222;28;20091;-72
2021/03/06 09:24:17;;;;;;;3.03;1.50;;;7.00;70.00;;;;;;5011182;28;20547;-72
2021/03/06 09:27:01;;;;;;;2.92;1.40;;;6.80;70.70;;;;;;5022433;28;20193;-72
2021/03/06 09:29:45;;;;;;;4.75;1.67;;;6.10;69.80;;;;;;5019332;28;20048;-72
2021/03/06 09:32:33;;;;;;;5.13;1.30;;;5.10;71.70;;;;;;5030512;28;20044;-71
2021/03/06 09:35:19;;;;;;;4.40;1.70;;;5.10;85.20;;;;;;5030351;28;20123;-71
2021/03/06 09:38:06;;;;;;;3.13;1.40;;;5.10;87.20;;;;;;5028367;28;20060;-71
2021/03/06 09:40:51;;;;;;;3.47;1.20;;;4.90;86.00;;;;;;5020928;28;20379;-71
2021/03/06 09:43:37;;;;;;;4.63;2.33;;;4.90;84.80;;;;;;5020163;28;20053;-71
2021/03/06 09:46:31;;;;;;;2.33;1.20;;;4.80;90.00;;;;;;5030379;28;20411;-71
2021/03/06 09:49:15;;;;;;;5.13;1.80;;;4.40;75.90;;;;;;5022864;28;20506;-70
2021/03/06 09:52:00;;;;;;;3.05;1.27;;;4.30;84.20;;;;;;5017391;28;20361;-71
2021/03/06 09:54:44;;;;;;;3.38;1.15;;;4.50;86.80;;;;;;5020169;28;20118;-71
2021/03/06 09:57:28;;;;;;;2.85;1.20;;;4.60;79.80;;;;;;5024321;28;20056;-70
2021/03/06 10:00:27;;;;;;;3.42;1.33;;;4.20;77.70;;;;;;5018444;28;20060;-70
2021/03/06 10:03:12;;;;;;;3.03;1.20;;;4.00;83.90;;;;;;5023812;28;20088;-71
2021/03/06 10:06:01;;;;;;;3.47;1.30;;;3.90;82.30;;;;;;5019874;28;20062;-70
2021/03/06 10:08:56;;;;;;;3.92;0.90;;;3.80;78.40;;;;;;5029205;28;20045;-70
2021/03/06 10:11:43;;;;;;;2.42;1.10;;;3.70;79.60;;;;;;5022805;28;20179;-70
2021/03/06 10:14:28;;;;;;;2.88;1.15;;;4.00;82.30;;;;;;5017570;28;20048;-71
2021/03/06 10:17:13;;;;;;;2.63;1.00;;;4.00;73.20;;;;;;5015396;28;20144;-71
2021/03/06 10:19:57;;;;;;;2.50;1.00;;;4.10;77.90;;;;;;5035837;28;20226;-72
2021/03/06 10:22:45;;;;;;;3.00;1.15;;;4.10;75.40;;;;;;5029881;28;20048;-71
2021/03/06 10:25:29;;;;;;;2.60;1.00;;;4.30;77.90;;;;;;5023455;28;20044;-72
2021/03/06 10:28:14;;;;;;;1.95;1.13;;;4.30;70.70;;;;;;5018326;28;20133;-71
2021/03/06 10:30:58;;;;;;;2.28;0.82;;;4.20;68.90;;;;;;5014226;28;20129;-72
2021/03/06 10:33:42;;;;;;;3.90;1.23;;;4.20;71.20;;;;;;5010344;28;20076;-71
2021/03/06 10:36:26;;;;;;;1.55;0.82;;;4.20;78.40;;;;;;5010515;28;20052;-71
2021/03/06 10:39:15;;;;;;;3.88;1.08;;;4.10;76.80;;;;;;5013841;28;20060;-71
2021/03/06 10:42:01;;;;;;;3.47;1.05;;;4.10;75.40;;;;;;5018824;28;20505;-71
2021/03/06 10:44:45;;;;;;;5.10;1.35;;;4.20;77.60;;;;;;5042361;28;20087;-72
2021/03/06 10:47:45;;;;;;;3.50;0.95;;;4.20;77.70;;;;;;5025554;28;20130;-72
2021/03/06 10:50:33;;;;;;;5.20;1.52;;;4.20;86.70;;;;;;5013811;28;20053;-70
2021/03/06 10:53:19;;;;;;;4.90;1.25;;;4.20;89.70;;;;;;5009838;28;20100;-71
2021/03/06 10:56:17;;;;;;;3.42;1.20;;;4.40;86.00;;;;;;5016636;28;20098;-72
2021/03/06 10:59:01;;;;;;;4.55;1.67;;;4.50;88.80;;;;;;5027514;28;20040;-72
2021/03/06 11:01:48;;;;;;;3.05;1.30;;;4.50;90.90;;;;;;5022257;28;20088;-71
2021/03/06 11:04:38;;;;;;;3.40;1.27;;;4.60;87.90;;;;;;5016491;28;20048;-73
2021/03/06 11:07:29;;;;;;;2.10;1.15;;;4.50;91.00;;;;;;5019123;28;20407;-73
2021/03/06 11:10:15;;;;;;;7.05;1.85;;;4.30;88.10;;;;;;5010846;28;20088;-72
2021/03/06 11:13:01;;;;;;;8.40;1.40;;;4.20;90.30;;;;;;5014644;28;20068;-72
2021/03/06 11:15:50;;;;;;;6.53;1.75;;;4.30;90.80;;;;;;5022800;28;20115;-71
2021/03/06 11:18:37;;;;;;;5.25;1.48;;;4.40;93.40;;;;;;5015367;28;20051;-73
2021/03/06 11:21:21;;;;;;;6.05;1.60;;;4.30;94.30;;;;;;5010079;28;20060;-71
2021/03/06 11:24:06;;;;;;;4.13;1.80;;;4.20;93.60;;;;;;5022507;28;20088;-71
2021/03/06 11:26:52;;;;;;;3.85;1.73;;;4.40;93.20;;;;;;5010987;28;20041;-71
2021/03/06 11:29:36;;;;;;;3.22;1.85;;;4.50;92.80;;;;;;5016660;28;20055;-71
2021/03/06 11:32:21;;;;;;;7.05;2.28;;;4.60;94.00;;;;;;5018468;28;20045;-70
2021/03/06 11:35:07;;;;;;;5.68;2.10;;;4.60;93.20;;;;;;5010591;28;20129;-71
2021/03/06 11:37:52;;;;;;;7.05;2.40;;;4.40;94.80;;;;;;5010596;28;20585;-71
2021/03/06 11:40:40;;;;;;;4.47;1.45;;;4.40;91.90;;;;;;5015994;28;20178;-70
2021/03/06 11:43:25;;;;;;;3.45;1.17;;;4.50;93.50;;;;;;5015599;28;20466;-71
2021/03/06 11:46:09;;;;;;;3.90;1.77;;;4.60;92.00;;;;;;5024132;28;20049;-71
2021/03/06 11:48:53;;;;;;;5.22;1.58;;;4.60;93.20;;;;;;5014086;28;20212;-72
2021/03/06 11:51:37;;;;;;;4.13;1.67;;;4.50;92.70;;;;;;5027638;28;20465;-71
2021/03/06 11:54:21;;;;;;;4.88;1.90;;;4.80;96.20;;;;;;5027801;28;20554;-71
2021/03/06 11:57:05;;;;;;;3.30;1.40;;;4.90;93.90;;;;;;5016846;28;20098;-72
2021/03/06 11:59:50;;;;;;;5.07;1.58;;;4.90;91.20;;;;;;5023813;28;20139;-71
2021/03/06 12:02:34;;;;;;;4.40;1.50;;;4.90;91.50;;;;;;5026348;28;20053;-72
2021/03/06 12:05:19;;;;;;;2.20;1.02;;;4.70;86.80;;;;;;5018066;28;20087;-72
2021/03/06 12:08:03;;;;;;;5.47;1.25;;;4.70;84.20;;;;;;5018728;28;20053;-72
2021/03/06 12:10:47;;;;;;;3.83;1.67;;;4.80;81.00;;;;;;5016915;28;20444;-72
2021/03/06 12:13:32;;;;;;;2.95;1.35;;;5.00;87.80;;;;;;5019652;28;20562;-73
2021/03/06 12:16:16;;;;;;;3.53;1.10;;;5.00;90.40;;;;;;5019681;28;20528;-72
2021/03/06 12:19:00;;;;;;;7.30;1.48;;;5.10;88.90;;;;;;5020492;28;20124;-73
2021/03/06 12:21:44;;;;;;;4.50;1.30;;;5.10;78.00;;;;;;5018842;28;20099;-72
2021/03/06 12:24:28;;;;;;;4.25;1.42;;;5.20;72.20;;;;;;5021041;28;20107;-72
2021/03/06 12:27:13;;;;;;;3.95;1.38;;;5.30;77.50;;;;;;5015142;28;20197;-73
2021/03/06 12:29:57;;;;;;;4.80;1.45;;;5.40;75.40;;;;;;5025867;28;20097;-73
2021/03/06 12:32:44;;;;;;;1.88;1.10;;;5.40;82.00;;;;;;5022491;28;20061;-72
2021/03/06 12:35:28;;;;;;;3.80;1.52;;;5.40;71.10;;;;;;5017004;28;20181;-72
2021/03/06 12:38:13;;;;;;;5.22;1.40;;;5.30;70.00;;;;;;5025184;28;20509;-72
2021/03/06 12:40:57;;;;;;;3.22;1.20;;;5.40;72.50;;;;;;5029460;28;20072;-72
2021/03/06 12:43:42;;;;;;;2.60;1.40;;;5.50;70.60;;;;;;5030281;28;20084;-72
2021/03/06 12:46:26;;;;;;;5.93;1.60;;;5.50;70.30;;;;;;5016626;28;20591;-72
2021/03/06 12:49:11;;;;;;;3.05;1.30;;;5.80;73.30;;;;;;5016493;28;20066;-72
2021/03/06 12:51:56;;;;;;;3.13;1.50;;;5.90;65.40;;;;;;5011195;28;20052;-72
2021/03/06 12:54:40;;;;;;;5.85;2.28;;;5.80;71.10;;;;;;5027745;28;20721;-72
2021/03/06 12:57:24;;;;;;;2.88;1.27;;;5.90;71.50;;;;;;5023322;28;20136;-72
2021/03/06 13:00:08;;;;;;;3.85;1.55;;;5.80;61.50;;;;;;5024393;28;20083;-72
2021/03/06 13:02:52;;;;;;;3.05;1.20;;;5.80;64.20;;;;;;5026971;28;20105;-72
2021/03/06 13:05:37;;;;;;;6.43;1.77;;;6.10;62.70;;;;;;5024087;28;20711;-72
2021/03/06 13:08:21;;;;;;;6.22;1.65;;;6.10;63.00;;;;;;5026971;28;20048;-73
2021/03/06 13:11:05;;;;;;;3.58;1.90;;;6.30;61.90;;;;;;5024123;28;20422;-73
2021/03/06 13:13:49;;;;;;;7.10;2.30;;;6.10;66.50;;;;;;5019881;28;20076;-73
2021/03/06 13:16:33;;;;;;;4.75;1.95;;;6.60;70.70;;;;;;5035190;28;20505;-73
2021/03/06 13:19:17;;;;;;;3.95;2.05;;;6.70;62.80;;;;;;5023334;28;20131;-73
2021/03/06 13:22:01;;;;;;;3.85;1.50;;;6.70;67.50;;;;;;5022270;28;20045;-73
2021/03/06 13:24:45;;;;;;;7.30;2.58;;;6.80;66.50;;;;;;5022696;28;20167;-73
2021/03/06 13:27:29;;;;;;;5.65;2.45;;;7.00;64.70;;;;;;5013858;28;20049;-73
2021/03/06 13:30:14;;;;;;;3.70;1.92;;;9.00;64.00;;;;;;5019125;28;20072;-73
2021/03/06 13:32:59;;;;;;;3.08;1.63;;;10.90;49.40;;;;;;5020947;28;20045;-74
2021/03/06 13:35:43;;;;;;;5.28;2.00;;;11.60;43.10;;;;;;5015560;28;20057;-74
2021/03/06 13:38:27;;;;;;;4.38;1.40;;;12.60;39.70;;;;;;5015784;28;20415;-72
2021/03/06 13:41:12;;;;;;;3.08;1.48;;;13.60;39.00;;;;;;5026387;28;20427;-72
2021/03/06 13:43:56;;;;;;;4.53;1.58;;;13.90;36.40;;;;;;5029969;28;20128;-73
2021/03/06 13:46:40;;;;;;;4.32;1.67;;;13.40;35.60;;;;;;5016220;28;20052;-72
2021/03/06 13:49:24;;;;;;;2.58;1.20;;;13.60;35.80;;;;;;5019616;28;20132;-73
2021/03/06 13:52:08;;;;;;;3.55;1.20;;;15.70;37.00;;;;;;5016209;28;20053;-73
2021/03/06 13:54:52;;;;;;;6.47;2.10;;;17.20;32.90;;;;;;5025479;28;20040;-73
2021/03/06 13:57:38;;;;;;;3.47;1.60;;;16.30;32.40;;;;;;5028228;28;20036;-72
2021/03/06 14:00:23;;;;;;;2.78;1.25;;;16.30;33.10;;;;;;5023705;28;20044;-73
2021/03/06 14:03:07;;;;;;;2.22;1.17;;;17.90;31.80;;;;;;5016845;28;20504;-73
2021/03/06 14:05:51;;;;;;;2.58;1.70;;;17.50;30.20;;;;;;5017487;28;20045;-73
2021/03/06 14:08:35;;;;;;;4.35;2.33;;;16.70;32.30;;;;;;5014070;28;20100;-73
2021/03/06 14:11:19;;;;;;;4.45;1.50;;;16.20;32.90;;;;;;5018594;28;20128;-73
2021/03/06 14:14:04;;;;;;;4.35;1.10;;;16.70;31.70;;;;;;5024846;28;20450;-73
2021/03/06 14:16:48;;;;;;;2.83;1.60;;;16.20;30.00;;;;;;5024327;28;20052;-74
2021/03/06 14:19:32;;;;;;;4.32;2.30;;;16.10;31.10;;;;;;5021317;28;20068;-73
2021/03/06 14:22:16;;;;;;;5.90;3.53;;;15.30;32.10;;;;;;5025676;28;20080;-74
2021/03/06 14:25:00;;;;;;;3.97;2.05;;;16.70;32.30;;;;;;5018762;28;20045;-74
2021/03/06 14:27:45;;;;;;;5.15;2.97;;;17.10;30.90;;;;;;5019455;28;20040;-74
2021/03/06 14:30:29;;;;;;;5.30;2.38;;;15.90;31.90;;;;;;5019666;28;20045;-74
2021/03/06 14:33:13;;;;;;;3.65;1.85;;;15.30;32.60;;;;;;5020858;28;20484;-74